Time;durP1;ratioP1;P1;durP2;ratioP2;P2;SDS_P1;SDS_P2;PMS_P1;PMS_P2;Temp;Humidity;BMP_temperature;BMP_pressure;BME280_temperature;BME280_humidity;BME280_pressure;Samples;Min_cycle;Max_cycle;Signal;HPM_P1;HPM_P2
2022/04/23 00:00:53;;;;;;;3.58;1.20;;;20.60;99.90;;;;;;5067262;28;20025;-62
2022/04/23 00:03:20;;;;;;;3.75;1.08;;;20.90;99.90;;;;;;5067416;28;20016;-62
2022/04/23 00:05:47;;;;;;;2.20;1.25;;;21.20;99.90;;;;;;5064253;28;20019;-63
2022/04/23 00:08:14;;;;;;;3.30;1.35;;;21.00;99.90;;;;;;5067270;28;20032;-60
2022/04/23 00:10:41;;;;;;;5.10;1.40;;;21.00;99.90;;;;;;5060163;28;20433;-62
2022/04/23 00:13:09;;;;;;;5.60;3.00;;;20.70;99.90;;;;;;5063426;28;20024;-63
2022/04/23 00:15:39;;;;;;;3.20;1.40;;;20.40;99.90;;;;;;5061591;28;20028;-64
2022/04/23 00:18:08;;;;;;;2.75;1.00;;;20.40;99.90;;;;;;5063321;28;20129;-66
2022/04/23 00:20:36;;;;;;;2.05;0.82;;;20.40;99.90;;;;;;5063288;28;20035;-62
2022/04/23 00:23:05;;;;;;;2.67;1.65;;;20.40;99.90;;;;;;5064779;28;20552;-63
2022/04/23 00:25:35;;;;;;;3.20;2.13;;;20.50;99.90;;;;;;5065413;28;20471;-62
2022/04/23 00:28:02;;;;;;;1.60;0.70;;;20.40;99.90;;;;;;5065804;28;20487;-64
2022/04/23 00:30:29;;;;;;;2.03;0.65;;;20.30;99.90;;;;;;5066216;28;20029;-66
2022/04/23 00:33:03;;;;;;;4.35;1.33;;;20.20;99.90;;;;;;5061354;28;20033;-70
2022/04/23 00:35:31;;;;;;;2.25;0.93;;;20.10;99.90;;;;;;5061053;28;20025;-64
2022/04/23 00:37:58;;;;;;;3.25;0.70;;;20.20;99.90;;;;;;5064118;28;20495;-71
2022/04/23 00:40:25;;;;;;;4.22;1.00;;;20.50;99.90;;;;;;5061497;28;20063;-62
2022/04/23 00:42:55;;;;;;;2.92;1.73;;;20.60;99.90;;;;;;5064249;28;20020;-70
2022/04/23 00:45:23;;;;;;;2.95;1.38;;;21.10;99.90;;;;;;5062846;28;20063;-64
2022/04/23 00:47:51;;;;;;;2.25;0.75;;;21.50;99.90;;;;;;5060519;28;20021;-63
2022/04/23 00:50:22;;;;;;;2.67;0.70;;;22.10;99.90;;;;;;5061047;28;20025;-64
2022/04/23 00:52:57;;;;;;;2.33;0.68;;;22.60;99.90;;;;;;5059673;28;20039;-71
2022/04/23 00:55:25;;;;;;;3.10;0.50;;;23.00;99.90;;;;;;5059389;28;20028;-71
2022/04/23 00:57:52;;;;;;;2.05;0.73;;;23.60;99.90;;;;;;5062041;28;20390;-64
2022/04/23 01:00:19;;;;;;;3.65;0.85;;;23.70;99.90;;;;;;5062294;28;20562;-62
2022/04/23 01:02:46;;;;;;;2.55;0.70;;;23.40;99.90;;;;;;5061538;28;20164;-70
2022/04/23 01:05:14;;;;;;;4.35;0.93;;;23.00;99.90;;;;;;5062244;28;20024;-64
2022/04/23 01:07:44;;;;;;;1.55;0.57;;;22.30;99.90;;;;;;5062167;28;20025;-62
2022/04/23 01:10:12;;;;;;;1.73;0.68;;;22.20;99.90;;;;;;5060160;28;20170;-64
2022/04/23 01:12:40;;;;;;;2.97;1.38;;;22.30;99.90;;;;;;5062173;28;20378;-64
2022/04/23 01:15:09;;;;;;;6.40;4.90;;;23.00;99.90;;;;;;5060408;28;20032;-64
2022/04/23 01:17:37;;;;;;;2.80;1.70;;;23.50;99.90;;;;;;5061681;28;20024;-71
2022/04/23 01:20:09;;;;;;;1.95;1.35;;;24.10;99.90;;;;;;5061455;28;20025;-60
2022/04/23 01:22:40;;;;;;;2.72;1.38;;;24.40;99.90;;;;;;5057651;28;20056;-65
2022/04/23 01:25:12;;;;;;;3.67;1.80;;;24.40;99.90;;;;;;5062817;28;20025;-63
2022/04/23 01:27:40;;;;;;;1.02;0.88;;;24.20;99.90;;;;;;5062056;28;20115;-71
2022/04/23 01:30:10;;;;;;;3.58;0.60;;;23.80;99.90;;;;;;5065233;28;20024;-64
2022/04/23 01:32:37;;;;;;;3.20;0.57;;;23.60;99.90;;;;;;5064624;28;20032;-70
2022/04/23 01:35:04;;;;;;;2.20;0.55;;;23.10;99.90;;;;;;5060809;28;20033;-64
2022/04/23 01:37:32;;;;;;;0.77;0.63;;;22.90;99.90;;;;;;5058044;28;20053;-63
2022/04/23 01:39:59;;;;;;;2.75;0.80;;;22.80;99.90;;;;;;5045976;28;20131;-64
2022/04/23 01:42:26;;;;;;;1.88;0.68;;;22.50;99.90;;;;;;5043195;28;20368;-64
2022/04/23 01:44:53;;;;;;;1.60;0.93;;;22.40;99.90;;;;;;5044755;28;20372;-65
2022/04/23 01:47:20;;;;;;;1.95;0.70;;;22.20;99.90;;;;;;5044570;28;20032;-67
2022/04/23 01:49:47;;;;;;;2.97;1.30;;;22.10;99.90;;;;;;5046076;28;20013;-67
2022/04/23 01:52:15;;;;;;;7.43;1.02;;;21.80;99.90;;;;;;5044829;28;20028;-69
2022/04/23 01:54:42;;;;;;;3.22;0.77;;;21.60;99.90;;;;;;5046494;28;20029;-66
2022/04/23 01:57:09;;;;;;;2.25;0.93;;;21.50;99.90;;;;;;5043621;28;20021;-67
2022/04/23 01:59:36;;;;;;;3.17;0.88;;;21.40;99.90;;;;;;5046350;28;20028;-65
2022/04/23 02:02:03;;;;;;;4.30;2.85;;;21.40;99.90;;;;;;5044730;28;20021;-66
2022/04/23 02:04:30;;;;;;;3.33;1.60;;;21.40;99.90;;;;;;5043984;28;20045;-64
2022/04/23 02:06:57;;;;;;;2.55;0.60;;;21.70;99.90;;;;;;5045515;28;20068;-69
2022/04/23 02:09:24;;;;;;;8.90;6.05;;;22.30;99.90;;;;;;5046213;28;20028;-63
2022/04/23 02:11:51;;;;;;;4.85;2.97;;;23.00;99.90;;;;;;5047230;28;20013;-63
2022/04/23 02:14:19;;;;;;;3.45;1.50;;;23.50;99.90;;;;;;5047112;28;20132;-61
2022/04/23 02:16:46;;;;;;;3.63;1.90;;;23.50;99.90;;;;;;5045264;28;20021;-63
2022/04/23 02:19:14;;;;;;;2.17;0.70;;;24.00;99.90;;;;;;5047266;28;20106;-63
2022/04/23 02:21:41;;;;;;;1.90;0.70;;;24.60;99.90;;;;;;5044144;28;20054;-69
2022/04/23 02:24:08;;;;;;;2.75;0.85;;;25.10;99.90;;;;;;5047420;28;20159;-69
2022/04/23 02:26:35;;;;;;;2.33;0.90;;;25.70;99.90;;;;;;5043316;28;20175;-69
2022/04/23 02:29:03;;;;;;;3.75;0.82;;;25.80;99.90;;;;;;5046612;28;20116;-71
2022/04/23 02:31:30;;;;;;;2.47;1.10;;;26.10;99.90;;;;;;5045100;28;20017;-69
2022/04/23 02:33:57;;;;;;;1.45;0.70;;;26.50;99.00;;;;;;5042495;28;20089;-62
2022/04/23 02:36:24;;;;;;;2.63;0.68;;;26.80;98.00;;;;;;5025384;28;20134;-70
2022/04/23 02:38:51;;;;;;;1.90;0.57;;;26.50;96.60;;;;;;5045523;28;20044;-62
2022/04/23 02:41:18;;;;;;;2.03;0.60;;;26.80;95.50;;;;;;5045267;28;20060;-64
2022/04/23 02:43:45;;;;;;;1.67;0.45;;;27.00;96.00;;;;;;5045856;28;20025;-62
2022/04/23 02:46:14;;;;;;;2.33;0.85;;;27.20;95.40;;;;;;5046080;28;20530;-64
2022/04/23 02:48:44;;;;;;;2.35;0.70;;;27.10;95.60;;;;;;5045064;28;20027;-63
2022/04/23 02:51:15;;;;;;;1.80;0.52;;;27.10;95.20;;;;;;5045371;28;20466;-67
2022/04/23 02:53:43;;;;;;;2.10;0.73;;;27.30;95.80;;;;;;5043311;28;20475;-64
2022/04/23 02:56:16;;;;;;;2.97;0.70;;;27.40;94.40;;;;;;5046557;28;20020;-69
2022/04/23 02:58:44;;;;;;;1.80;0.60;;;27.50;94.20;;;;;;5041975;28;20112;-64
2022/04/23 03:01:11;;;;;;;2.15;0.50;;;27.30;94.50;;;;;;5044060;28;20024;-64
2022/04/23 03:03:42;;;;;;;2.50;0.70;;;27.00;94.70;;;;;;5043628;28;20031;-62
2022/04/23 03:06:10;;;;;;;1.88;1.00;;;26.50;94.00;;;;;;5037290;28;20021;-62
2022/04/23 03:08:41;;;;;;;1.95;0.75;;;26.20;95.50;;;;;;5044900;28;20043;-69
2022/04/23 03:11:08;;;;;;;1.95;0.60;;;25.70;95.20;;;;;;5045238;28;20091;-62
2022/04/23 03:13:35;;;;;;;0.68;0.50;;;25.10;95.70;;;;;;5044903;28;20017;-70
2022/04/23 03:16:03;;;;;;;2.80;0.60;;;24.80;96.70;;;;;;5044426;28;20497;-69
2022/04/23 03:18:30;;;;;;;2.38;0.50;;;25.00;96.30;;;;;;4346367;28;10000452;-65
2022/04/23 03:20:58;;;;;;;2.13;0.50;;;25.30;96.40;;;;;;5034963;28;20068;-63
2022/04/23 03:23:25;;;;;;;1.63;0.70;;;25.30;96.00;;;;;;5039737;28;20029;-63
2022/04/23 03:25:52;;;;;;;3.03;0.65;;;25.10;96.40;;;;;;5042364;28;20492;-66
2022/04/23 03:28:20;;;;;;;1.92;0.88;;;25.20;96.10;;;;;;5038807;28;20021;-70
2022/04/23 03:30:48;;;;;;;1.85;0.68;;;25.40;95.80;;;;;;5036223;28;20112;-70
2022/04/23 03:33:15;;;;;;;0.60;0.45;;;25.30;95.10;;;;;;5032592;28;20390;-62
2022/04/23 03:35:42;;;;;;;3.25;1.10;;;25.50;94.10;;;;;;5037058;28;20106;-64
2022/04/23 03:38:09;;;;;;;1.35;0.40;;;25.70;95.40;;;;;;5038738;28;20060;-70
2022/04/23 03:40:36;;;;;;;2.05;0.57;;;26.00;94.60;;;;;;5040103;28;20234;-70
2022/04/23 03:43:03;;;;;;;1.67;0.57;;;25.90;94.80;;;;;;5037767;28;20168;-62
2022/04/23 03:45:32;;;;;;;2.05;0.70;;;26.30;93.60;;;;;;5038371;28;20124;-64
2022/04/23 03:48:01;;;;;;;1.85;0.80;;;26.30;94.30;;;;;;5038343;28;20379;-61
2022/04/23 03:50:29;;;;;;;0.88;0.50;;;26.20;94.50;;;;;;5039417;28;20059;-61
2022/04/23 03:52:56;;;;;;;2.30;0.70;;;26.20;94.70;;;;;;5039079;28;20036;-71
2022/04/23 03:55:28;;;;;;;4.28;0.82;;;26.10;94.20;;;;;;5039396;28;20035;-62
2022/04/23 03:57:55;;;;;;;0.60;0.50;;;26.20;93.90;;;;;;5037925;28;20072;-62
2022/04/23 04:00:22;;;;;;;2.83;0.80;;;26.00;94.10;;;;;;5037824;28;20053;-62
2022/04/23 04:02:50;;;;;;;2.13;0.60;;;25.70;94.00;;;;;;5038196;28;20150;-64
2022/04/23 04:05:18;;;;;;;1.42;0.43;;;25.70;94.20;;;;;;5039649;28;20757;-65
2022/04/23 04:07:47;;;;;;;1.23;0.65;;;25.60;93.50;;;;;;5042189;28;20399;-66
2022/04/23 04:10:20;;;;;;;4.95;0.50;;;25.50;94.40;;;;;;5038721;28;20021;-71
2022/04/23 04:12:48;;;;;;;0.60;0.40;;;25.50;93.70;;;;;;5039487;28;20232;-61
2022/04/23 04:15:16;;;;;;;1.02;0.40;;;25.80;93.00;;;;;;5019589;28;20167;-65
2022/04/23 04:17:47;;;;;;;2.90;0.60;;;26.00;94.00;;;;;;5037309;28;20029;-62
2022/04/23 04:20:15;;;;;;;1.20;0.57;;;26.20;93.90;;;;;;5040507;28;20037;-63
2022/04/23 04:22:45;;;;;;;1.15;0.47;;;26.60;92.70;;;;;;5020566;28;20053;-63
2022/04/23 04:25:13;;;;;;;1.30;0.82;;;26.80;92.10;;;;;;5041132;28;20032;-64
2022/04/23 04:27:41;;;;;;;2.35;1.20;;;26.70;92.40;;;;;;5041796;28;20028;-63
2022/04/23 04:30:10;;;;;;;1.95;0.82;;;26.50;91.70;;;;;;5033446;28;20481;-72
2022/04/23 04:32:38;;;;;;;1.02;0.70;;;26.10;93.00;;;;;;5040196;28;20032;-67
2022/04/23 04:35:06;;;;;;;3.47;0.50;;;25.50;93.70;;;;;;5039510;28;20167;-72
2022/04/23 04:37:33;;;;;;;2.25;0.60;;;25.00;94.00;;;;;;5040151;28;20052;-72
2022/04/23 04:40:00;;;;;;;2.13;0.90;;;24.40;94.30;;;;;;5039911;28;20553;-66
2022/04/23 04:42:27;;;;;;;2.35;1.05;;;24.00;95.10;;;;;;5038870;28;20407;-64
2022/04/23 04:44:54;;;;;;;3.78;0.90;;;23.70;96.10;;;;;;5040045;28;20029;-64
2022/04/23 04:47:21;;;;;;;2.25;1.08;;;23.50;96.40;;;;;;5040265;28;20025;-73
2022/04/23 04:49:48;;;;;;;2.10;0.60;;;23.30;96.10;;;;;;5041122;28;20093;-63
2022/04/23 04:52:15;;;;;;;3.53;0.70;;;23.10;96.70;;;;;;5041186;28;20025;-73
2022/04/23 04:54:42;;;;;;;2.15;0.95;;;23.00;97.90;;;;;;5041430;28;20371;-73
2022/04/23 04:57:09;;;;;;;2.28;0.80;;;22.80;97.80;;;;;;5039878;28;20099;-64
2022/04/23 04:59:35;;;;;;;3.10;0.80;;;22.70;98.00;;;;;;5040646;28;20231;-67
2022/04/23 05:02:03;;;;;;;2.38;0.70;;;22.50;98.30;;;;;;5038558;28;20029;-64
2022/04/23 05:04:30;;;;;;;4.40;0.95;;;22.40;99.50;;;;;;5041644;28;20366;-66
2022/04/23 05:06:58;;;;;;;2.58;0.95;;;22.40;99.30;;;;;;5044797;28;20501;-66
2022/04/23 05:09:25;;;;;;;1.77;0.77;;;22.30;99.80;;;;;;5027307;28;20525;-72
2022/04/23 05:11:52;;;;;;;1.80;0.70;;;22.20;99.90;;;;;;5045381;28;20060;-62
2022/04/23 05:14:19;;;;;;;1.35;0.75;;;22.00;99.90;;;;;;5041680;28;20458;-67
2022/04/23 05:16:46;;;;;;;2.63;0.98;;;22.00;99.90;;;;;;5044122;28;20387;-72
2022/04/23 05:19:13;;;;;;;1.33;0.70;;;21.90;99.90;;;;;;5044029;28;20422;-62
2022/04/23 05:21:40;;;;;;;2.15;0.93;;;22.00;99.90;;;;;;5044555;28;20025;-72
2022/04/23 05:24:07;;;;;;;2.72;0.88;;;22.50;99.90;;;;;;5037806;28;20032;-63
2022/04/23 05:26:35;;;;;;;1.88;0.73;;;22.90;99.90;;;;;;5037188;28;20024;-67
2022/04/23 05:29:03;;;;;;;2.10;0.85;;;23.30;99.90;;;;;;5044081;28;20037;-68
2022/04/23 05:31:32;;;;;;;2.75;0.80;;;23.60;99.90;;;;;;5045928;28;20021;-64
2022/04/23 05:33:59;;;;;;;3.10;0.88;;;23.90;99.30;;;;;;5044801;28;20071;-67
2022/04/23 05:36:26;;;;;;;2.58;1.00;;;24.00;98.90;;;;;;5046163;28;20078;-64
2022/04/23 05:38:54;;;;;;;2.28;1.08;;;24.10;98.80;;;;;;5043905;28;20160;-63
2022/04/23 05:41:21;;;;;;;2.50;0.80;;;24.20;97.80;;;;;;5044079;28;20391;-63
2022/04/23 05:43:48;;;;;;;3.40;0.50;;;24.40;98.00;;;;;;5045745;28;20032;-67
2022/04/23 05:46:16;;;;;;;2.85;0.82;;;24.40;97.90;;;;;;5043950;28;20043;-64
2022/04/23 05:48:43;;;;;;;2.33;1.05;;;24.00;98.70;;;;;;5044111;28;20104;-67
2022/04/23 05:51:10;;;;;;;2.28;0.95;;;23.20;99.90;;;;;;5038913;28;20036;-64
2022/04/23 05:53:37;;;;;;;3.17;0.85;;;22.70;99.90;;;;;;5044453;28;20025;-64
2022/04/23 05:56:05;;;;;;;3.25;0.95;;;22.30;99.90;;;;;;5044943;28;20844;-64
2022/04/23 05:58:35;;;;;;;3.75;0.75;;;22.00;99.90;;;;;;5046193;28;20735;-71
2022/04/23 06:01:03;;;;;;;1.17;0.68;;;21.70;99.90;;;;;;5044231;28;20044;-64
2022/04/23 06:03:31;;;;;;;2.03;1.10;;;21.60;99.90;;;;;;5044526;28;20029;-64
2022/04/23 06:05:58;;;;;;;2.58;0.65;;;21.50;99.90;;;;;;5046530;28;20029;-65
2022/04/23 06:08:25;;;;;;;2.85;0.88;;;21.40;99.90;;;;;;5045007;28;20036;-64
2022/04/23 06:10:52;;;;;;;2.28;0.65;;;21.20;99.90;;;;;;5045105;28;20028;-66
2022/04/23 06:13:19;;;;;;;2.17;0.80;;;21.20;99.90;;;;;;5045560;28;20106;-66
2022/04/23 06:15:46;;;;;;;2.13;0.90;;;21.00;99.90;;;;;;5023325;28;20521;-70
2022/04/23 06:18:13;;;;;;;3.50;0.93;;;20.90;99.90;;;;;;5044167;28;20029;-67
2022/04/23 06:20:40;;;;;;;2.88;0.80;;;20.80;99.90;;;;;;5043994;28;20029;-65
2022/04/23 06:23:07;;;;;;;2.72;1.08;;;20.70;99.90;;;;;;5035819;28;20410;-65
2022/04/23 06:25:34;;;;;;;1.75;0.95;;;20.60;99.90;;;;;;5044906;28;20024;-68
2022/04/23 06:28:01;;;;;;;4.03;1.05;;;20.60;99.90;;;;;;5044230;28;20025;-67
2022/04/23 06:30:28;;;;;;;2.20;1.05;;;20.60;99.90;;;;;;5042551;28;20025;-64
2022/04/23 06:32:55;;;;;;;4.90;1.08;;;20.60;99.90;;;;;;5039704;28;20037;-70
2022/04/23 06:35:24;;;;;;;4.28;1.27;;;20.50;99.90;;;;;;5044211;28;20037;-69
2022/04/23 06:37:51;;;;;;;1.55;0.80;;;20.40;99.90;;;;;;5044730;28;20051;-63
2022/04/23 06:40:18;;;;;;;1.17;0.57;;;20.30;99.90;;;;;;5045877;28;20131;-63
2022/04/23 06:42:45;;;;;;;3.78;2.00;;;20.30;99.90;;;;;;5043394;28;20025;-63
2022/04/23 06:45:12;;;;;;;4.28;1.17;;;20.30;99.90;;;;;;5042343;28;20024;-70
2022/04/23 06:47:39;;;;;;;1.88;0.90;;;20.20;99.90;;;;;;5043540;28;20021;-68
2022/04/23 06:50:07;;;;;;;1.08;0.60;;;20.20;99.90;;;;;;5040671;28;20029;-70
2022/04/23 06:52:34;;;;;;;4.13;1.50;;;20.20;99.90;;;;;;5041822;28;20025;-69
2022/04/23 06:55:01;;;;;;;1.98;0.80;;;20.10;99.90;;;;;;5040681;28;20021;-67
2022/04/23 06:57:28;;;;;;;1.60;0.70;;;20.00;99.90;;;;;;5040264;28;20036;-63
2022/04/23 06:59:59;;;;;;;2.03;0.90;;;20.00;99.90;;;;;;5039923;28;20396;-68
2022/04/23 07:02:26;;;;;;;3.88;2.40;;;19.90;99.90;;;;;;5038496;28;20479;-63
2022/04/23 07:04:52;;;;;;;1.88;1.20;;;19.80;99.90;;;;;;5039154;28;20487;-63
2022/04/23 07:07:19;;;;;;;5.15;1.40;;;19.70;99.90;;;;;;5039768;28;20056;-66
2022/04/23 07:09:46;;;;;;;1.60;0.82;;;19.70;99.90;;;;;;5041649;28;20029;-63
2022/04/23 07:12:14;;;;;;;2.50;1.00;;;19.60;99.90;;;;;;5040322;28;20032;-69
2022/04/23 07:14:41;;;;;;;2.15;0.88;;;19.70;99.90;;;;;;5041092;28;20738;-63
2022/04/23 07:17:10;;;;;;;2.03;0.85;;;19.60;99.90;;;;;;5041439;28;20083;-67
2022/04/23 07:19:41;;;;;;;1.40;0.82;;;19.50;99.90;;;;;;5038279;28;20048;-63
2022/04/23 07:22:09;;;;;;;1.45;0.75;;;19.60;99.90;;;;;;5031935;28;20025;-66
2022/04/23 07:24:37;;;;;;;3.97;1.25;;;19.60;99.90;;;;;;5031192;28;20021;-66
2022/04/23 07:27:04;;;;;;;3.75;0.95;;;19.50;99.90;;;;;;5037661;28;20025;-65
2022/04/23 07:29:31;;;;;;;2.25;1.02;;;19.50;99.90;;;;;;5037152;28;20040;-66
2022/04/23 07:31:58;;;;;;;3.20;1.25;;;19.50;99.90;;;;;;5038633;28;20086;-68
2022/04/23 07:37:28;;;;;;;2.58;0.98;;;19.40;99.90;;;;;;5036302;28;20554;-69
2022/04/23 07:40:13;;;;;;;3.83;1.15;;;19.40;99.90;;;;;;5039828;28;20035;-69
2022/04/23 07:42:40;;;;;;;2.75;1.05;;;19.40;99.90;;;;;;5036951;28;20411;-68
2022/04/23 07:45:10;;;;;;;2.35;1.38;;;19.40;99.90;;;;;;5038245;28;20025;-68
2022/04/23 07:47:37;;;;;;;7.57;1.75;;;19.40;99.90;;;;;;5036969;28;20032;-67
2022/04/23 07:50:04;;;;;;;2.20;1.00;;;19.30;99.90;;;;;;5038578;28;20031;-68
2022/04/23 07:52:35;;;;;;;2.28;1.30;;;19.10;99.90;;;;;;5016732;28;20040;-66
2022/04/23 07:55:02;;;;;;;3.97;1.20;;;19.10;99.90;;;;;;5036218;28;20036;-66
2022/04/23 07:57:29;;;;;;;1.70;1.08;;;19.00;99.90;;;;;;5037949;28;20037;-68
2022/04/23 07:59:56;;;;;;;2.75;1.00;;;19.10;99.90;;;;;;5037070;28;20188;-68
2022/04/23 08:02:22;;;;;;;2.47;1.48;;;18.90;99.90;;;;;;5038001;28;20112;-67
2022/04/23 08:04:49;;;;;;;3.95;1.40;;;18.70;99.90;;;;;;5038213;28;20040;-66
2022/04/23 08:07:16;;;;;;;6.80;1.30;;;18.70;99.90;;;;;;5038839;28;20029;-68
2022/04/23 08:09:43;;;;;;;3.72;1.05;;;18.70;99.90;;;;;;5039207;28;20110;-67
2022/04/23 08:12:11;;;;;;;3.25;1.05;;;18.60;99.90;;;;;;5039073;28;20524;-66
2022/04/23 08:14:38;;;;;;;2.00;1.10;;;18.50;99.90;;;;;;5036850;28;20131;-71
2022/04/23 08:17:05;;;;;;;5.32;1.60;;;18.50;99.90;;;;;;5039265;28;20498;-71
2022/04/23 08:19:32;;;;;;;1.83;1.05;;;18.50;99.90;;;;;;5036769;28;20044;-69
2022/04/23 08:21:59;;;;;;;3.40;1.40;;;18.40;99.90;;;;;;5036664;28;21172;-67
2022/04/23 08:24:26;;;;;;;3.78;1.50;;;18.30;99.90;;;;;;5015979;28;20535;-71
2022/04/23 08:26:53;;;;;;;2.17;1.23;;;18.30;99.90;;;;;;5037090;28;20567;-70
2022/04/23 08:32:05;;;;;;;3.90;1.90;;;18.20;99.90;;;;;;5036845;28;20035;-67
2022/04/23 08:34:32;;;;;;;3.60;1.90;;;18.10;99.90;;;;;;5036648;28;20542;-70
2022/04/23 08:36:59;;;;;;;3.25;1.38;;;18.00;99.90;;;;;;5036226;28;20048;-70
2022/04/23 08:39:27;;;;;;;2.97;1.52;;;18.10;99.90;;;;;;5033462;28;20118;-65
2022/04/23 08:41:53;;;;;;;4.18;1.70;;;18.00;99.90;;;;;;5036065;28;20029;-69
2022/04/23 08:44:22;;;;;;;3.53;1.60;;;17.90;99.90;;;;;;5034438;28;20036;-71
2022/04/23 08:46:51;;;;;;;7.95;4.18;;;17.70;99.90;;;;;;5034364;28;20017;-65
2022/04/23 08:49:18;;;;;;;23.92;15.57;;;17.50;99.90;;;;;;5031764;28;20040;-67
2022/04/23 08:51:54;;;;;;;15.73;10.23;;;17.40;99.90;;;;;;5033245;28;20033;-67
2022/04/23 08:54:24;;;;;;;4.97;2.40;;;17.30;99.90;;;;;;5035638;28;20052;-67
2022/04/23 08:56:51;;;;;;;8.15;2.15;;;17.40;99.90;;;;;;5035024;28;20056;-67
2022/04/23 08:59:20;;;;;;;5.03;2.00;;;17.30;99.90;;;;;;5030583;28;20082;-68
2022/04/23 09:01:47;;;;;;;3.17;1.63;;;17.40;99.90;;;;;;5032968;28;20021;-68
2022/04/23 09:04:14;;;;;;;4.38;1.92;;;17.30;99.90;;;;;;5034629;28;20028;-68
2022/04/23 09:06:43;;;;;;;5.13;2.10;;;17.20;99.90;;;;;;5034733;28;20024;-67
2022/04/23 09:09:46;;;;;;;6.03;2.00;;;17.20;99.90;;;;;;5035503;28;20533;-67
2022/04/23 09:12:13;;;;;;;4.00;1.98;;;17.10;99.90;;;;;;5026192;28;20072;-67
2022/04/23 09:14:40;;;;;;;4.88;1.80;;;16.90;99.90;;;;;;5032902;28;20539;-67
2022/04/23 09:25:37;;;;;;;5.50;2.03;;;16.50;99.90;;;;;;5026505;28;20044;-69
2022/04/23 09:28:45;;;;;;;5.30;2.95;;;16.40;99.90;;;;;;5032241;28;20064;-69
2022/04/23 09:31:18;;;;;;;12.73;6.13;;;16.30;99.90;;;;;;4972731;28;20023;-66
2022/04/23 09:33:51;;;;;;;18.92;15.15;;;16.30;99.90;;;;;;4969359;28;20034;-67
2022/04/23 09:36:19;;;;;;;10.10;7.20;;;16.30;99.90;;;;;;4971812;28;20023;-66
2022/04/23 09:39:03;;;;;;;10.07;7.50;;;16.20;99.90;;;;;;4985951;28;20631;-67
2022/04/23 09:41:36;;;;;;;13.13;9.02;;;16.10;99.90;;;;;;4980165;28;20368;-67
2022/04/23 09:44:11;;;;;;;10.40;8.48;;;16.00;99.90;;;;;;4988048;28;20018;-67
2022/04/23 09:46:49;;;;;;;5.32;4.65;;;16.00;99.90;;;;;;4987924;28;20038;-68
2022/04/23 09:49:22;;;;;;;6.63;3.03;;;15.90;99.90;;;;;;4988954;28;20811;-68
2022/04/23 09:52:00;;;;;;;;;;;15.90;99.90;;;;;;4992907;28;21736;-66
2022/04/23 09:54:31;;;;;;;4.57;2.15;;;15.80;99.90;;;;;;4992566;28;20569;-67
2022/04/23 09:56:59;;;;;;;6.32;2.38;;;15.70;99.90;;;;;;4991432;28;20057;-67
2022/04/23 09:59:27;;;;;;;9.45;2.60;;;15.70;99.90;;;;;;4992223;28;20037;-67
2022/04/23 10:01:56;;;;;;;6.55;3.08;;;15.60;99.90;;;;;;4991415;28;20045;-67
2022/04/23 10:04:27;;;;;;;4.28;2.50;;;15.50;99.90;;;;;;5001285;28;20103;-66
2022/04/23 10:06:56;;;;;;;7.25;2.75;;;15.50;99.90;;;;;;5051259;28;20348;-67
2022/04/23 10:09:30;;;;;;;5.53;2.88;;;15.40;99.90;;;;;;5053686;28;20023;-67
2022/04/23 10:12:08;;;;;;;4.43;2.38;;;15.40;99.90;;;;;;5047950;28;20582;-68
2022/04/23 10:14:42;;;;;;;4.65;1.73;;;15.30;99.90;;;;;;5036676;28;21304;-66
2022/04/23 10:17:12;;;;;;;3.78;2.38;;;15.30;99.90;;;;;;5039840;28;20024;-67
2022/04/23 10:19:40;;;;;;;3.80;1.95;;;15.20;99.90;;;;;;5042384;28;20037;-67
2022/04/23 10:22:22;;;;;;;3.72;1.95;;;15.10;99.90;;;;;;5041140;28;20120;-69
2022/04/23 10:25:36;;;;;;;3.90;2.15;;;15.10;99.90;;;;;;5045775;28;20031;-68
2022/04/23 10:28:04;;;;;;;6.93;1.95;;;15.10;99.90;;;;;;5038105;28;20368;-69
2022/04/23 10:30:34;;;;;;;4.40;1.70;;;15.10;99.90;;;;;;5049117;28;20078;-67
2022/04/23 10:33:27;;;;;;;4.43;1.50;;;15.20;99.90;;;;;;5040665;28;20207;-68
2022/04/23 10:36:10;;;;;;;2.70;1.52;;;15.20;99.90;;;;;;5044240;28;20104;-69
2022/04/23 10:38:44;;;;;;;6.63;1.80;;;15.10;99.90;;;;;;5082111;23;20065;-68
2022/04/23 10:41:14;;;;;;;3.83;1.77;;;15.20;99.90;;;;;;5031267;28;20801;-69
2022/04/23 10:43:55;;;;;;;4.68;1.45;;;15.20;99.90;;;;;;5040142;28;20021;-69
2022/04/23 10:46:40;;;;;;;5.05;1.15;;;15.20;99.90;;;;;;5040796;28;20025;-68
2022/04/23 10:49:19;;;;;;;7.00;1.42;;;15.10;99.90;;;;;;5036092;28;20489;-68
2022/04/23 10:51:54;;;;;;;2.15;1.33;;;15.10;99.90;;;;;;5028132;28;20119;-67
2022/04/23 10:54:40;;;;;;;4.18;1.30;;;15.30;99.90;;;;;;5036105;28;20499;-67
2022/04/23 10:57:15;;;;;;;3.85;1.77;;;15.30;99.90;;;;;;5035240;28;20024;-68
2022/04/23 10:59:49;;;;;;;7.80;2.53;;;15.30;99.90;;;;;;5036858;28;20514;-68
2022/04/23 11:02:37;;;;;;;11.73;7.10;;;15.30;99.90;;;;;;5036455;28;20032;-68
2022/04/23 11:13:59;;;;;;;4.82;1.70;;;15.30;99.90;;;;;;5042130;28;20047;-66
2022/04/23 11:16:30;;;;;;;2.72;1.63;;;15.30;99.90;;;;;;5042084;28;20779;-67
2022/04/23 11:18:58;;;;;;;2.13;1.50;;;15.30;99.90;;;;;;5042046;28;20043;-71
2022/04/23 11:21:27;;;;;;;3.35;1.52;;;15.20;99.90;;;;;;5043098;28;20087;-67
2022/04/23 11:23:57;;;;;;;3.92;1.77;;;15.20;99.90;;;;;;5032372;28;20498;-71
2022/04/23 11:26:42;;;;;;;3.45;1.83;;;15.10;99.90;;;;;;5037974;28;20068;-68
2022/04/23 11:29:09;;;;;;;4.82;2.00;;;15.20;99.90;;;;;;5041193;28;20386;-69
2022/04/23 11:31:36;;;;;;;3.90;1.73;;;15.10;99.90;;;;;;5034362;28;20143;-70
2022/04/23 11:34:04;;;;;;;3.58;1.38;;;15.10;99.90;;;;;;5035963;28;20051;-69
2022/04/23 11:36:36;;;;;;;4.97;1.77;;;15.20;99.90;;;;;;5041533;28;20468;-70
2022/04/23 11:39:12;;;;;;;2.65;1.40;;;15.30;99.90;;;;;;5037952;28;20029;-69
2022/04/23 11:41:43;;;;;;;6.90;2.47;;;15.30;99.90;;;;;;5013053;28;20435;-72
2022/04/23 11:44:21;;;;;;;4.85;2.28;;;15.20;99.90;;;;;;5026960;28;20525;-75
2022/04/23 11:46:51;;;;;;;2.33;1.55;;;15.00;99.90;;;;;;5041893;28;20031;-73
2022/04/23 11:49:30;;;;;;;3.50;1.58;;;14.90;99.90;;;;;;5041908;28;20016;-72
2022/04/23 11:52:05;;;;;;;3.55;1.60;;;14.80;99.90;;;;;;5041855;28;20429;-72
2022/04/23 11:54:33;;;;;;;4.00;1.73;;;14.70;99.90;;;;;;5017798;28;20442;-68
2022/04/23 11:57:00;;;;;;;2.10;1.58;;;14.70;99.90;;;;;;5041803;28;20033;-68
2022/04/23 11:59:39;;;;;;;2.20;1.50;;;14.60;99.90;;;;;;5039631;28;20813;-69
2022/04/23 12:02:23;;;;;;;3.85;1.77;;;14.50;99.90;;;;;;5041252;28;20132;-69
2022/04/23 12:05:03;;;;;;;3.97;1.90;;;14.60;99.90;;;;;;5031963;28;20409;-68
2022/04/23 12:07:35;;;;;;;3.85;1.80;;;14.60;99.90;;;;;;5042032;28;20036;-69
2022/04/23 12:10:03;;;;;;;6.63;2.33;;;14.60;99.90;;;;;;5041753;28;20154;-69
2022/04/23 12:12:34;;;;;;;3.13;1.85;;;14.60;99.90;;;;;;5042007;28;20025;-69
2022/04/23 12:15:07;;;;;;;7.78;2.03;;;14.60;99.90;;;;;;5042075;28;20365;-67
2022/04/23 12:17:45;;;;;;;4.00;1.67;;;14.60;99.90;;;;;;5040926;28;20035;-69
2022/04/23 12:20:14;;;;;;;2.80;1.63;;;14.60;99.90;;;;;;5037615;28;20422;-69
2022/04/23 12:23:05;;;;;;;6.88;2.78;;;14.60;99.90;;;;;;5038285;28;20453;-69
2022/04/23 12:25:33;;;;;;;7.15;2.28;;;14.70;99.90;;;;;;5038455;28;20028;-67
2022/04/23 12:42:31;;;;;;;3.70;1.60;;;14.80;99.90;;;;;;5041410;28;20432;-68
2022/04/23 12:44:57;;;;;;;4.05;1.70;;;14.80;99.90;;;;;;5033639;28;20120;-69
2022/04/23 12:47:34;;;;;;;6.57;1.83;;;14.90;99.90;;;;;;5043661;28;20021;-69
2022/04/23 12:50:06;;;;;;;5.15;2.03;;;15.00;99.90;;;;;;5045405;28;20195;-68
2022/04/23 12:52:45;;;;;;;4.20;2.40;;;15.10;99.90;;;;;;5045394;28;20025;-67
2022/04/23 12:55:25;;;;;;;5.13;1.75;;;15.10;99.90;;;;;;5045091;28;20025;-66
2022/04/23 12:58:03;;;;;;;5.63;2.10;;;15.20;99.90;;;;;;5046098;28;20028;-67
2022/04/23 13:00:34;;;;;;;4.13;2.30;;;15.20;99.90;;;;;;5039380;28;20076;-68
2022/04/23 13:05:47;;;;;;;4.72;2.80;;;15.10;99.90;;;;;;5045040;28;20048;-66
2022/04/23 13:11:24;;;;;;;4.28;2.75;;;15.20;99.90;;;;;;5045467;28;20028;-67
2022/04/23 13:13:46;;;;;;;8.18;5.65;;;15.10;99.90;;;;;;5045279;28;20037;-66
2022/04/23 13:16:13;;;;;;;5.47;4.90;;;15.20;99.90;;;;;;5045602;28;20017;-67
2022/04/23 13:18:40;;;;;;;6.90;5.30;;;15.20;99.90;;;;;;5045392;28;20021;-68
2022/04/23 13:21:08;;;;;;;7.40;5.07;;;15.20;99.90;;;;;;5041495;28;20793;-66
2022/04/23 13:23:35;;;;;;;5.72;4.15;;;15.10;99.90;;;;;;5033327;28;20025;-70
2022/04/23 13:26:02;;;;;;;5.80;3.80;;;15.10;99.90;;;;;;5046982;28;20072;-67
2022/04/23 13:28:29;;;;;;;6.18;3.88;;;15.10;99.90;;;;;;5048898;28;20021;-68
2022/04/23 13:30:56;;;;;;;7.85;3.17;;;15.10;99.90;;;;;;5048373;28;20059;-66
2022/04/23 13:33:23;;;;;;;4.45;2.97;;;15.00;99.90;;;;;;5046177;28;20029;-67
2022/04/23 13:35:50;;;;;;;7.35;3.30;;;15.10;99.90;;;;;;5047307;28;20028;-68
2022/04/23 13:38:17;;;;;;;5.47;3.08;;;15.20;99.90;;;;;;5046770;28;20052;-65
2022/04/23 13:40:49;;;;;;;4.45;2.58;;;15.20;99.90;;;;;;5047321;28;20386;-67